Aeroporto :
LOGIN :

Iscrizione | Disclaimer

   EN    FR    IT 

 










Sommario :    VFR   VFR Marginale   IFR   IFR Intensivo   IFR Molto Intensivo
Visibilità : 
Base nubi : 
>= 8 km
>= 3000ft
5 / 8 km
1000 / 3000 ft
1500m / 5 km
500 / 1000 ft
800 / 1500m
200 / 500 ft
< 800m
< 200 ft
Simboli :   Temporali  Nebbia  Neve Forte  Precipitazioni Forti  Vento > 20 kt
SIGMETs :   Varie  Temporali  Ghiacco  Turbolenza  Onda orograficha  Ceneri Vulcaniche






- Altitudine del aeroporto : 1674 ft
- Codice IATA : BRN


LSZB - Bern Belp

ULTIMO METAR :
  • 240950Z AUTO 20008KT 180V250 9999 BKN080 08/M01 Q1012

METARs OBSOLETI :
  • 240920Z 27007KT 230V300 9999 SCT045 SCT055 07/M00 Q1012
  • 240850Z 28006KT 250V320 9999 SCT035 BKN065 06/M02 Q1012
  • 240820Z 25007KT 220V300 9999 SCT022 BKN075 06/00 Q1012
  • 240750Z VRB02KT 9999 FEW065 BKN075 05/02 Q1012
  • 240720Z VRB02KT 7000 FEW005 SCT050 BKN070 04/02 Q1012
  • 240650Z VRB02KT 7000 FEW005 SCT050 BKN060 03/02 Q1013
  • 240620Z VRB02KT 5000 SCT005 BKN060 BKN070 02/02 Q1013
  • 240550Z 00000KT 5000 BR FEW005 BKN065 01/01 Q1013
  • 240520Z 00000KT 4000 BR FEW005 BKN064 01/01 Q1013
  • 240450Z 00000KT 3500 BR FEW005 BKN062 01/01 Q1013

TAF TAF LSZB
Valido dal 24 a 09 ore il 24 a 18 ore UTC


240825Z 2409/2418 VRB02KT 9999 FEW065 BKN075
PROB40 2412/2418 26010KT SHRA FEW040TCU
ATIS : +41 22 417 40 76



MetMap, La meteo Aeronautica in un colpo d'occhio ! - Copyright ORBIFLY Dicembre 2007 - Disclaimer

ORBIFLY MET'MAP TEAM :

Programmazione e sviluppo : Alexandra Zaïnal
Concezione : Baudouin d'Aumeries
Supporto tecnico e logistico : Manuel Goepfert
Aiuto : Marc-Olivier Méhu
Aiuto per la traduzione : Arnaldo La Scala




FONTI E CREDITI :

   NOAA